createdAt,value
2022-10-07T00:00:21.124Z,29.888
2022-10-07T00:05:19.935Z,29.888
2022-10-07T00:10:16.978Z,29.890
2022-10-07T00:15:16.989Z,29.891
2022-10-07T00:20:20.105Z,29.890
2022-10-07T00:25:19.948Z,29.890
2022-10-07T00:30:19.929Z,29.892
2022-10-07T00:35:18.230Z,29.890
2022-10-07T00:40:19.970Z,29.888
2022-10-07T00:45:19.980Z,29.888
2022-10-07T00:50:19.992Z,29.888
2022-10-07T00:55:16.956Z,29.890
2022-10-07T01:00:16.994Z,29.890
2022-10-07T01:05:21.182Z,29.890
2022-10-07T01:10:20.240Z,29.891
2022-10-07T01:15:17.050Z,29.891
2022-10-07T01:20:19.989Z,29.891
2022-10-07T01:25:19.974Z,29.890
2022-10-07T01:30:20.015Z,29.889
2022-10-07T01:35:17.004Z,29.890
2022-10-07T01:40:18.175Z,29.892
2022-10-07T01:45:20.010Z,29.890
2022-10-07T01:50:19.995Z,29.888
2022-10-07T01:55:19.993Z,29.888
2022-10-07T02:00:17.004Z,29.889
2022-10-07T02:05:20.074Z,29.889
2022-10-07T02:10:21.152Z,29.888
2022-10-07T02:15:20.011Z,29.887
2022-10-07T02:20:17.048Z,29.887
2022-10-07T02:25:20.025Z,29.887
2022-10-07T02:30:20.003Z,29.885
2022-10-07T02:35:19.980Z,29.887
2022-10-07T02:40:17.040Z,29.888
2022-10-07T02:45:19.667Z,29.888
2022-10-07T02:50:19.993Z,29.888
2022-10-07T02:55:17.102Z,29.888
2022-10-07T03:00:17.027Z,29.887
2022-10-07T03:05:20.081Z,29.888
2022-10-07T03:10:20.099Z,29.887
2022-10-07T03:15:21.109Z,29.886
2022-10-07T03:20:20.014Z,29.886
2022-10-07T03:25:17.069Z,29.883
2022-10-07T03:30:24.170Z,29.884
2022-10-07T03:35:16.999Z,29.883
2022-10-07T03:40:20.047Z,29.880
2022-10-07T03:45:17.092Z,29.880
2022-10-07T03:50:21.215Z,29.879
2022-10-07T03:55:20.024Z,29.880
2022-10-07T04:00:19.306Z,29.878
2022-10-07T04:05:16.352Z,29.879
2022-10-07T04:10:19.394Z,29.878
2022-10-07T04:15:19.303Z,29.879
2022-10-07T04:20:19.344Z,29.880
2022-10-07T04:25:17.319Z,29.879
2022-10-07T04:30:16.353Z,29.879
2022-10-07T04:35:19.310Z,29.878
2022-10-07T04:40:19.326Z,29.878
2022-10-07T04:45:19.323Z,29.879
2022-10-07T04:50:16.379Z,29.878
2022-10-07T04:55:20.562Z,29.877
2022-10-07T05:00:19.355Z,29.877
2022-10-07T05:05:16.195Z,29.875
2022-10-07T05:10:16.357Z,29.873
2022-10-07T05:15:16.341Z,29.876
2022-10-07T05:20:19.353Z,29.875
2022-10-07T05:25:19.324Z,29.875
2022-10-07T05:30:20.358Z,29.875
2022-10-07T05:35:16.371Z,29.875
2022-10-07T05:40:16.327Z,29.872
2022-10-07T05:45:19.349Z,29.873
2022-10-07T05:50:19.345Z,29.873
2022-10-07T05:55:19.313Z,29.876
2022-10-07T06:00:16.368Z,29.878
2022-10-07T06:05:20.620Z,29.879
2022-10-07T06:10:19.358Z,29.880
2022-10-07T06:15:19.353Z,29.880
2022-10-07T06:20:16.206Z,29.879
2022-10-07T06:25:19.574Z,29.879
2022-10-07T06:30:16.473Z,29.879
2022-10-07T06:35:19.375Z,29.877
2022-10-07T06:40:20.512Z,29.874
2022-10-07T06:45:16.381Z,29.872
2022-10-07T06:50:16.457Z,29.871
2022-10-07T06:55:19.433Z,29.871
2022-10-07T07:00:19.343Z,29.871
2022-10-07T07:05:16.404Z,29.871
2022-10-07T07:10:16.436Z,29.870
2022-10-07T07:15:20.652Z,29.869
2022-10-07T07:20:19.491Z,29.869
2022-10-07T07:25:19.369Z,29.867
2022-10-07T07:30:19.371Z,29.866
2022-10-07T07:35:16.414Z,29.865
2022-10-07T07:40:19.392Z,29.866
2022-10-07T07:45:19.421Z,29.865
2022-10-07T07:50:20.477Z,29.863
2022-10-07T07:55:16.409Z,29.865
2022-10-07T08:00:19.397Z,29.863
2022-10-07T08:05:23.685Z,29.863
2022-10-07T08:10:19.369Z,29.863
2022-10-07T08:15:19.459Z,29.861
2022-10-07T08:20:19.373Z,29.863
2022-10-07T08:25:17.679Z,29.864
2022-10-07T08:30:19.478Z,29.864
2022-10-07T08:35:19.366Z,29.865
2022-10-07T08:40:19.396Z,29.866
2022-10-07T08:45:16.452Z,29.866
2022-10-07T08:50:19.558Z,29.866
2022-10-07T08:55:20.788Z,29.866
2022-10-07T09:00:19.436Z,29.868
2022-10-07T09:05:19.417Z,29.868
2022-10-07T09:10:16.489Z,29.866
2022-10-07T09:15:16.494Z,29.869
2022-10-07T09:20:19.431Z,29.871
2022-10-07T09:25:19.433Z,29.870
2022-10-07T09:30:20.688Z,29.872
2022-10-07T09:35:16.473Z,29.871
2022-10-07T09:40:19.465Z,29.872
2022-10-07T09:45:19.440Z,29.870
2022-10-07T09:50:19.436Z,29.872
2022-10-07T09:55:16.509Z,29.872
2022-10-07T10:00:16.516Z,29.871
2022-10-07T10:05:20.656Z,29.872
2022-10-07T10:10:19.557Z,29.872
2022-10-07T10:15:16.289Z,29.872
2022-10-07T10:20:16.520Z,29.872
2022-10-07T10:25:16.505Z,29.871
2022-10-07T10:30:19.579Z,29.871
2022-10-07T10:35:19.478Z,29.872
2022-10-07T10:40:20.781Z,29.872
2022-10-07T10:45:19.511Z,29.870
2022-10-07T10:50:16.553Z,29.871
2022-10-07T10:55:16.537Z,29.872
2022-10-07T11:00:16.551Z,29.871
2022-10-07T11:05:19.513Z,29.872
2022-10-07T11:10:19.498Z,29.875
2022-10-07T11:15:17.575Z,29.876
2022-10-07T11:20:19.526Z,29.877
2022-10-07T11:25:19.492Z,29.880
2022-10-07T11:30:19.527Z,29.882
2022-10-07T11:35:16.378Z,29.882
2022-10-07T11:40:19.547Z,29.885
2022-10-07T11:45:16.584Z,29.885
2022-10-07T11:50:20.727Z,29.885
2022-10-07T11:55:19.548Z,29.884
2022-10-07T12:00:19.522Z,29.886
2022-10-07T12:05:16.616Z,29.885
2022-10-07T12:10:16.337Z,29.884
2022-10-07T12:15:19.566Z,29.884
2022-10-07T12:20:16.571Z,29.883
2022-10-07T12:25:20.801Z,29.884
2022-10-07T12:30:19.567Z,29.885
2022-10-07T12:35:16.639Z,29.883
2022-10-07T12:40:19.567Z,29.883
2022-10-07T12:45:19.531Z,29.884
2022-10-07T12:50:16.595Z,29.882
2022-10-07T12:55:19.558Z,29.879
2022-10-07T13:00:20.754Z,29.877
2022-10-07T13:05:16.618Z,29.878
2022-10-07T13:10:19.655Z,29.881
2022-10-07T13:15:19.580Z,29.880
2022-10-07T13:20:19.549Z,29.876
2022-10-07T13:25:16.613Z,29.876
2022-10-07T13:30:19.603Z,29.878
2022-10-07T13:35:20.674Z,29.877
2022-10-07T13:40:19.553Z,29.878
2022-10-07T13:45:16.635Z,29.880
2022-10-07T13:50:19.640Z,29.881
2022-10-07T13:55:19.590Z,29.879
2022-10-07T14:00:16.621Z,29.879
2022-10-07T14:05:19.612Z,29.882
2022-10-07T14:10:20.784Z,29.881
2022-10-07T14:15:19.635Z,29.881
2022-10-07T14:20:19.561Z,29.877
2022-10-07T14:25:19.598Z,29.876
2022-10-07T14:30:16.662Z,29.873
2022-10-07T14:35:16.667Z,29.874
2022-10-07T14:40:19.598Z,29.873
2022-10-07T14:45:20.802Z,29.871
2022-10-07T14:50:19.634Z,29.870
2022-10-07T14:55:19.617Z,29.868
2022-10-07T15:00:19.628Z,29.866
2022-10-07T15:05:16.718Z,29.869
2022-10-07T15:10:19.662Z,29.867
2022-10-07T15:15:19.581Z,29.867
2022-10-07T15:20:17.719Z,29.868
2022-10-07T15:25:16.710Z,29.866
2022-10-07T15:30:19.668Z,29.864
2022-10-07T15:35:19.614Z,29.863
2022-10-07T15:40:19.597Z,29.863
2022-10-07T15:45:19.626Z,29.861
2022-10-07T15:50:16.651Z,29.858
2022-10-07T15:55:20.879Z,29.857
2022-10-07T16:00:19.589Z,29.856
2022-10-07T16:05:19.609Z,29.853
2022-10-07T16:10:16.641Z,29.853
2022-10-07T16:15:19.667Z,29.850
2022-10-07T16:20:19.919Z,29.850
2022-10-07T16:25:16.634Z,29.849
2022-10-07T16:30:17.878Z,29.847
2022-10-07T16:35:19.667Z,29.846
2022-10-07T16:40:19.695Z,29.847
2022-10-07T16:45:16.645Z,29.846
2022-10-07T16:50:19.615Z,29.842
2022-10-07T16:55:19.652Z,29.838
2022-10-07T17:00:16.709Z,29.833
2022-10-07T17:05:20.878Z,29.833
2022-10-07T17:10:19.618Z,29.831
2022-10-07T17:15:19.625Z,29.828
2022-10-07T17:20:19.983Z,29.827
2022-10-07T17:25:19.663Z,29.825
2022-10-07T17:30:16.563Z,29.823
2022-10-07T17:35:16.700Z,29.821
2022-10-07T17:40:20.849Z,29.819
2022-10-07T17:45:19.633Z,29.819
2022-10-07T17:50:16.701Z,29.816
2022-10-07T17:55:16.754Z,29.816
2022-10-07T18:00:19.659Z,29.812
2022-10-07T18:05:19.636Z,29.814
2022-10-07T18:10:19.662Z,29.812
2022-10-07T18:15:20.809Z,29.809
2022-10-07T18:20:19.626Z,29.807
2022-10-07T18:25:16.680Z,29.804
2022-10-07T18:30:19.700Z,29.803
2022-10-07T18:35:19.653Z,29.803
2022-10-07T18:40:19.674Z,29.804
2022-10-07T18:45:19.641Z,29.799
2022-10-07T18:50:17.769Z,29.797
2022-10-07T18:55:19.692Z,29.798
2022-10-07T19:00:16.707Z,29.798
2022-10-07T19:05:19.970Z,29.798
2022-10-07T19:10:19.691Z,29.795
2022-10-07T19:15:19.648Z,29.795
2022-10-07T19:20:16.706Z,29.795
2022-10-07T19:25:20.984Z,29.795
2022-10-07T19:30:16.704Z,29.795
2022-10-07T19:35:16.730Z,29.795
2022-10-07T19:40:16.714Z,29.796
2022-10-07T19:45:19.684Z,29.794
2022-10-07T19:50:19.718Z,29.791
2022-10-07T19:55:16.753Z,29.792
2022-10-07T20:00:20.863Z,29.794
2022-10-07T20:05:16.755Z,29.793
2022-10-07T20:10:16.744Z,29.792
2022-10-07T20:15:19.724Z,29.793
2022-10-07T20:20:19.712Z,29.792
2022-10-07T20:25:16.745Z,29.793
2022-10-07T20:30:19.827Z,29.793
2022-10-07T20:35:20.901Z,29.793
2022-10-07T20:40:19.661Z,29.793
2022-10-07T20:45:19.689Z,29.791
2022-10-07T20:50:16.740Z,29.792
2022-10-07T20:55:19.692Z,29.793
2022-10-07T21:00:19.715Z,29.795
2022-10-07T21:05:19.738Z,29.797
2022-10-07T21:10:20.801Z,29.798
2022-10-07T21:15:19.713Z,29.799
2022-10-07T21:20:16.743Z,29.798
2022-10-07T21:25:20.063Z,29.801
2022-10-07T21:30:19.750Z,29.802
2022-10-07T21:35:16.756Z,29.805
2022-10-07T21:40:19.753Z,29.806
2022-10-07T21:45:20.979Z,29.807
2022-10-07T21:50:19.722Z,29.809
2022-10-07T21:55:16.802Z,29.810
2022-10-07T22:00:19.746Z,29.811
2022-10-07T22:05:16.751Z,29.810
2022-10-07T22:10:16.754Z,29.813
2022-10-07T22:15:19.746Z,29.812
2022-10-07T22:20:20.939Z,29.814
2022-10-07T22:25:19.715Z,29.815
2022-10-07T22:30:16.785Z,29.815
2022-10-07T22:35:19.745Z,29.815
2022-10-07T22:40:19.739Z,29.816
2022-10-07T22:45:16.781Z,29.817
2022-10-07T22:50:16.852Z,29.817
2022-10-07T22:55:20.979Z,29.820
2022-10-07T23:00:19.808Z,29.824
2022-10-07T23:05:16.801Z,29.824
2022-10-07T23:10:19.787Z,29.824
2022-10-07T23:15:19.754Z,29.828
2022-10-07T23:20:16.780Z,29.838
2022-10-07T23:25:19.815Z,29.841
2022-10-07T23:30:21.019Z,29.842
2022-10-07T23:35:19.772Z,29.844
2022-10-07T23:40:16.814Z,29.845
2022-10-07T23:45:19.792Z,29.848
2022-10-07T23:50:19.787Z,29.853
2022-10-07T23:55:19.809Z,29.857
